Time;durP1;ratioP1;P1;durP2;ratioP2;P2;SDS_P1;SDS_P2;PMS_P1;PMS_P2;Temp;Humidity;BMP_temperature;BMP_pressure;BME280_temperature;BME280_humidity;BME280_pressure;Samples;Min_cycle;Max_cycle;Signal;HPM_P1;HPM_P2
2023/01/08 00:02:25;;;;;;;;;;;;;;;;;;4963144;28;19903;-88
2023/01/08 00:04:50;;;;;;;;;;;;;;;;;;4966339;28;19909;-90
2023/01/08 00:07:16;;;;;;;;;;;;;;;;;;5170736;23;19939;-84
2023/01/08 00:09:42;;;;;;;;;;;;;;;;;;4931631;28;19962;-86
2023/01/08 00:12:08;;;;;;;;;;;;;;;;;;5195705;23;19931;-85
2023/01/08 00:14:34;;;;;;;;;;;;;;;;;;4928601;29;19915;-87
2023/01/08 00:17:01;;;;;;;;;;;;;;;;;;4958344;29;20366;-84
2023/01/08 00:19:27;;;;;;;;;;;;;;;;;;4942438;29;19919;-91
2023/01/08 00:21:52;;;;;;;;;;;;;;;;;;4909232;29;19914;-93
2023/01/08 00:24:19;;;;;;;;;;;;;;;;;;4905859;29;19918;-94
2023/01/08 00:26:45;;;;;;;;;;;;;;;;;;4906438;29;19915;-90
2023/01/08 00:34:34;;;;;;;;;;;;;;;;;;5400806;23;19986;-92
2023/01/08 00:37:03;;;;;;;;;;;;;;;;;;5318876;23;19911;-93
2023/01/08 00:39:29;;;;;;;;;;;;;;;;;;4922812;29;20278;-90
2023/01/08 00:41:54;;;;;;;;;;;;;;;;;;4925509;29;19910;-92
2023/01/08 00:44:19;;;;;;;;;;;;;;;;;;4919914;29;20046;-93
2023/01/08 00:46:45;;;;;;;;;;;;;;;;;;4912879;29;19931;-93
2023/01/08 00:49:10;;;;;;;;;;;;;;;;;;4891494;29;20302;-90
2023/01/08 00:51:36;;;;;;;;;;;;;;;;;;4891805;29;19974;-93
2023/01/08 00:54:02;;;;;;;;;;;;;;;;;;4885718;29;19922;-94
2023/01/08 00:56:27;;;;;;;;;;;;;;;;;;4882522;29;19915;-93
2023/01/08 00:58:53;;;;;;;;;;;;;;;;;;4880755;29;19929;-91
2023/01/08 01:01:18;;;;;;;;;;;;;;;;;;4885337;29;19915;-94
2023/01/08 01:03:44;;;;;;;;;;;;;;;;;;4876915;29;19994;-93
2023/01/08 01:06:09;;;;;;;;;;;;;;;;;;4876333;29;20371;-92
2023/01/08 01:08:35;;;;;;;;;;;;;;;;;;4871706;29;19915;-93
2023/01/08 01:11:00;;;;;;;;;;;;;;;;;;4875404;29;20371;-92
2023/01/08 01:13:26;;;;;;;;;;;;;;;;;;4875687;29;19915;-93
2023/01/08 01:15:54;;;;;;;;;;;;;;;;;;4853828;29;19915;-94
2023/01/08 01:18:27;;;;;;;;;;;;;;;;;;4870616;29;19919;-94
2023/01/08 01:20:52;;;;;;;;;;;;;;;;;;4870132;29;20480;-95
2023/01/08 01:23:18;;;;;;;;;;;;;;;;;;4869464;29;20294;-93
2023/01/08 01:25:43;;;;;;;;;;;;;;;;;;4871518;29;19915;-94
2023/01/08 01:28:08;;;;;;;;;;;;;;;;;;4872331;29;19919;-96
2023/01/08 01:30:34;;;;;;;;;;;;;;;;;;4872207;29;20330;-92
2023/01/08 01:32:59;;;;;;;;;;;;;;;;;;4888114;29;20425;-93
2023/01/08 01:35:25;;;;;;;;;;;;;;;;;;4873147;29;19921;-93
2023/01/08 01:37:50;;;;;;;;;;;;;;;;;;4873648;29;20426;-91
2023/01/08 01:40:16;;;;;;;;;;;;;;;;;;4878118;29;20376;-92
2023/01/08 01:42:42;;;;;;;;;;;;;;;;;;4889370;29;19911;-90
2023/01/08 01:45:08;;;;;;;;;;;;;;;;;;4898694;29;19927;-91
2023/01/08 01:47:33;;;;;;;;;;;;;;;;;;4889153;29;20387;-92
2023/01/08 01:49:59;;;;;;;;;;;;;;;;;;4871599;29;20446;-91
2023/01/08 01:52:27;;;;;;;;;;;;;;;;;;4871168;29;20392;-93
2023/01/08 01:54:52;;;;;;;;;;;;;;;;;;4871410;29;19922;-92
2023/01/08 01:57:17;;;;;;;;;;;;;;;;;;4873567;29;19923;-93
2023/01/08 01:59:43;;;;;;;;;;;;;;;;;;4886782;29;19916;-92
2023/01/08 02:02:08;;;;;;;;;;;;;;;;;;4890116;29;19936;-93
2023/01/08 02:04:34;;;;;;;;;;;;;;;;;;4888883;29;19925;-91
2023/01/08 02:06:59;;;;;;;;;;;;;;;;;;4890557;29;19948;-94
2023/01/08 02:09:25;;;;;;;;;;;;;;;;;;4889662;29;19924;-92
2023/01/08 02:12:15;;;;;;;;;;;;;;;;;;4878387;29;20002;-95
2023/01/08 02:14:35;;;;;;;;;;;;;;;;;;4886357;29;19916;-92
2023/01/08 02:17:01;;;;;;;;;;;;;;;;;;4874345;29;19923;-94
2023/01/08 02:19:26;;;;;;;;;;;;;;;;;;4885504;29;19971;-93
2023/01/08 02:21:52;;;;;;;;;;;;;;;;;;4887908;29;20005;-92
2023/01/08 02:24:17;;;;;;;;;;;;;;;;;;4871570;29;19953;-92
2023/01/08 02:26:43;;;;;;;;;;;;;;;;;;4884897;29;19922;-91
2023/01/08 02:29:08;;;;;;;;;;;;;;;;;;4885119;29;19919;-90
2023/01/08 02:31:34;;;;;;;;;;;;;;;;;;4885793;29;19922;-89
2023/01/08 02:33:59;;;;;;;;;;;;;;;;;;4870305;29;19926;-90
2023/01/08 02:36:24;;;;;;;;;;;;;;;;;;4889201;29;19915;-87
2023/01/08 02:38:50;;;;;;;;;;;;;;;;;;4920084;29;19923;-88
2023/01/08 02:41:15;;;;;;;;;;;;;;;;;;4881987;29;20007;-90
2023/01/08 02:43:41;;;;;;;;;;;;;;;;;;4884761;29;20388;-89
2023/01/08 02:46:06;;;;;;;;;;;;;;;;;;4885925;29;19919;-90
2023/01/08 02:51:13;;;;;;;;;;;;;;;;;;5321857;23;19910;-87
2023/01/08 02:56:20;;;;;;;;;;;;;;;;;;5160878;23;20016;-88
2023/01/08 02:58:47;;;;;;;;;;;;;;;;;;4944481;28;19906;-88
2023/01/08 03:01:15;;;;;;;;;;;;;;;;;;4986752;23;19994;-88
2023/01/08 03:03:40;;;;;;;;;;;;;;;;;;4917533;29;19915;-89
2023/01/08 03:08:47;;;;;;;;;;;;;;;;;;5179766;23;19926;-89
2023/01/08 03:11:13;;;;;;;;;;;;;;;;;;4926571;29;19915;-92
2023/01/08 03:13:38;;;;;;;;;;;;;;;;;;4923265;29;19915;-91
2023/01/08 03:16:04;;;;;;;;;;;;;;;;;;4919525;29;19911;-91
2023/01/08 03:18:29;;;;;;;;;;;;;;;;;;4936744;29;19923;-90
2023/01/08 03:20:55;;;;;;;;;;;;;;;;;;4909591;29;19915;-91
2023/01/08 03:23:20;;;;;;;;;;;;;;;;;;4920265;29;19959;-92
2023/01/08 03:25:46;;;;;;;;;;;;;;;;;;4942591;23;19931;-82
2023/01/08 03:28:11;;;;;;;;;;;;;;;;;;4915176;29;19939;-81
2023/01/08 03:30:37;;;;;;;;;;;;;;;;;;4913293;29;20294;-82
2023/01/08 03:33:02;;;;;;;;;;;;;;;;;;4917216;29;19915;-82
2023/01/08 03:35:28;;;;;;;;;;;;;;;;;;4917655;29;19931;-82
2023/01/08 03:37:53;;;;;;;;;;;;;;;;;;4934005;29;19999;-82
2023/01/08 03:40:18;;;;;;;;;;;;;;;;;;4935848;29;19923;-81
2023/01/08 03:42:44;;;;;;;;;;;;;;;;;;4919810;29;20354;-81
2023/01/08 03:45:09;;;;;;;;;;;;;;;;;;4938112;29;19926;-83
2023/01/08 03:47:35;;;;;;;;;;;;;;;;;;4906128;29;19915;-81
2023/01/08 03:50:00;;;;;;;;;;;;;;;;;;4904091;29;19978;-82
2023/01/08 03:52:26;;;;;;;;;;;;;;;;;;4932478;29;19951;-82
2023/01/08 03:54:51;;;;;;;;;;;;;;;;;;4926462;29;19915;-82
2023/01/08 03:57:17;;;;;;;;;;;;;;;;;;4912608;29;20043;-81
2023/01/08 03:59:43;;;;;;;;;;;;;;;;;;4927474;29;19964;-81
2023/01/08 04:02:10;;;;;;;;;;;;;;;;;;4922709;29;20491;-81
2023/01/08 04:04:35;;;;;;;;;;;;;;;;;;4970625;23;19939;-83
2023/01/08 04:07:01;;;;;;;;;;;;;;;;;;4939701;29;19926;-83
2023/01/08 04:09:27;;;;;;;;;;;;;;;;;;4938091;29;19915;-82
2023/01/08 04:11:52;;;;;;;;;;;;;;;;;;4920161;29;19922;-83
2023/01/08 04:14:18;;;;;;;;;;;;;;;;;;4941184;29;19903;-83
2023/01/08 04:16:44;;;;;;;;;;;;;;;;;;4942506;29;19919;-83
2023/01/08 04:19:10;;;;;;;;;;;;;;;;;;4958740;29;19926;-83
2023/01/08 04:21:36;;;;;;;;;;;;;;;;;;4943115;29;19922;-83
2023/01/08 04:24:02;;;;;;;;;;;;;;;;;;4923278;29;19982;-83
2023/01/08 04:26:27;;;;;;;;;;;;;;;;;;4940448;29;19911;-83
2023/01/08 04:28:53;;;;;;;;;;;;;;;;;;4941449;29;19921;-83
2023/01/08 04:31:19;;;;;;;;;;;;;;;;;;4912614;29;19903;-83
2023/01/08 04:33:44;;;;;;;;;;;;;;;;;;4940244;29;20381;-83
2023/01/08 04:36:10;;;;;;;;;;;;;;;;;;4929037;28;19974;-84
2023/01/08 04:38:37;;;;;;;;;;;;;;;;;;4911228;29;19930;-83
2023/01/08 04:41:03;;;;;;;;;;;;;;;;;;4928067;29;19899;-83
2023/01/08 04:43:29;;;;;;;;;;;;;;;;;;4929653;29;19925;-84
2023/01/08 04:45:55;;;;;;;;;;;;;;;;;;5120697;23;19966;-83
2023/01/08 04:48:21;;;;;;;;;;;;;;;;;;4946755;28;19918;-85
2023/01/08 04:50:49;;;;;;;;;;;;;;;;;;5026600;23;19925;-83
2023/01/08 04:53:16;;;;;;;;;;;;;;;;;;4965967;28;19922;-84
2023/01/08 04:55:44;;;;;;;;;;;;;;;;;;4945215;29;19926;-83
2023/01/08 04:58:09;;;;;;;;;;;;;;;;;;4939427;29;19922;-84
2023/01/08 05:00:35;;;;;;;;;;;;;;;;;;4955815;29;19906;-83
2023/01/08 05:03:01;;;;;;;;;;;;;;;;;;4941240;29;19915;-83
2023/01/08 05:05:27;;;;;;;;;;;;;;;;;;4940591;29;19915;-83
2023/01/08 05:07:53;;;;;;;;;;;;;;;;;;4944058;29;19919;-84
2023/01/08 05:10:19;;;;;;;;;;;;;;;;;;4949246;29;19922;-83
2023/01/08 05:12:45;;;;;;;;;;;;;;;;;;4912959;29;19915;-83
2023/01/08 05:15:12;;;;;;;;;;;;;;;;;;4944576;29;20386;-83
2023/01/08 05:17:38;;;;;;;;;;;;;;;;;;4928880;29;19954;-83
2023/01/08 05:20:05;;;;;;;;;;;;;;;;;;4949749;29;19938;-83
2023/01/08 05:22:31;;;;;;;;;;;;;;;;;;4957006;29;19914;-83
2023/01/08 05:25:00;;;;;;;;;;;;;;;;;;4943371;28;19926;-84
2023/01/08 05:27:26;;;;;;;;;;;;;;;;;;4961418;28;19907;-83
2023/01/08 05:29:52;;;;;;;;;;;;;;;;;;4958353;29;19922;-83
2023/01/08 05:32:18;;;;;;;;;;;;;;;;;;4913059;29;19926;-84
2023/01/08 05:34:44;;;;;;;;;;;;;;;;;;4960697;29;19919;-83
2023/01/08 05:37:10;;;;;;;;;;;;;;;;;;4960645;28;19935;-83
2023/01/08 05:39:39;;;;;;;;;;;;;;;;;;4961657;28;19919;-83
2023/01/08 05:42:05;;;;;;;;;;;;;;;;;;4945874;29;19903;-83
2023/01/08 05:44:37;;;;;;;;;;;;;;;;;;4945513;28;19919;-83
2023/01/08 05:47:11;;;;;;;;;;;;;;;;;;4961190;28;19930;-83
2023/01/08 05:49:37;;;;;;;;;;;;;;;;;;4930130;28;20116;-84
2023/01/08 05:52:03;;;;;;;;;;;;;;;;;;4962076;28;19907;-84
2023/01/08 05:54:34;;;;;;;;;;;;;;;;;;4929956;28;19927;-83
2023/01/08 05:57:01;;;;;;;;;;;;;;;;;;4929552;28;19902;-84
2023/01/08 05:59:29;;;;;;;;;;;;;;;;;;4945586;28;19927;-84
2023/01/08 06:02:22;;;;;;;;;;;;;;;;;;5346262;23;19918;-84
2023/01/08 06:04:49;;;;;;;;;;;;;;;;;;4948367;28;19925;-84
2023/01/08 06:07:20;;;;;;;;;;;;;;;;;;4945240;28;19918;-83
2023/01/08 06:09:53;;;;;;;;;;;;;;;;;;4929852;28;19909;-83
2023/01/08 06:12:20;;;;;;;;;;;;;;;;;;4914250;28;19926;-83
2023/01/08 06:14:52;;;;;;;;;;;;;;;;;;4945618;28;19951;-84
2023/01/08 06:17:26;;;;;;;;;;;;;;;;;;4914006;28;19911;-84
2023/01/08 06:19:55;;;;;;;;;;;;;;;;;;4945782;28;19903;-84
2023/01/08 06:22:21;;;;;;;;;;;;;;;;;;4913865;28;19903;-83
2023/01/08 06:27:29;;;;;;;;;;;;;;;;;;5018244;23;19919;-84
2023/01/08 06:29:56;;;;;;;;;;;;;;;;;;4964051;28;19903;-84
2023/01/08 06:32:27;;;;;;;;;;;;;;;;;;4963956;28;19969;-84
2023/01/08 06:37:27;;;;;;;;;;;;;;;;;;4924440;29;19919;-83
2023/01/08 06:39:58;;;;;;;;;;;;;;;;;;4910153;29;19903;-83
2023/01/08 06:42:27;;;;;;;;;;;;;;;;;;4926216;28;19907;-84
2023/01/08 06:44:57;;;;;;;;;;;;;;;;;;4909727;28;19928;-86
2023/01/08 06:47:26;;;;;;;;;;;;;;;;;;4910768;29;19935;-85
2023/01/08 06:49:53;;;;;;;;;;;;;;;;;;4909920;28;19945;-85
2023/01/08 06:52:28;;;;;;;;;;;;;;;;;;4910803;28;19911;-83
2023/01/08 06:54:57;;;;;;;;;;;;;;;;;;4910746;28;19907;-83
2023/01/08 07:24:26;;;;;;;;;;;;;;;;;;5594582;23;20017;-81
2023/01/08 07:26:58;;;;;;;;;;;;;;;;;;4953010;29;19971;-84
2023/01/08 07:29:26;;;;;;;;;;;;;;;;;;4927302;29;19914;-81
2023/01/08 07:31:53;;;;;;;;;;;;;;;;;;4936162;29;19922;-83
2023/01/08 07:34:19;;;;;;;;;;;;;;;;;;4908757;29;19975;-83
2023/01/08 07:36:53;;;;;;;;;;;;;;;;;;4913467;29;19915;-83
2023/01/08 07:39:20;;;;;;;;;;;;;;;;;;4932012;29;19935;-84
2023/01/08 07:41:47;;;;;;;;;;;;;;;;;;4931727;28;19926;-84
2023/01/08 07:44:13;;;;;;;;;;;;;;;;;;4931535;29;19919;-83
2023/01/08 07:46:40;;;;;;;;;;;;;;;;;;4946336;29;19915;-84
2023/01/08 07:49:08;;;;;;;;;;;;;;;;;;4921460;29;20473;-84
2023/01/08 07:51:37;;;;;;;;;;;;;;;;;;4903214;29;19925;-83
2023/01/08 07:54:06;;;;;;;;;;;;;;;;;;4938983;29;19898;-83
2023/01/08 07:56:36;;;;;;;;;;;;;;;;;;4946788;29;19903;-84
2023/01/08 07:59:04;;;;;;;;;;;;;;;;;;4929403;29;19931;-83
2023/01/08 08:01:32;;;;;;;;;;;;;;;;;;4912044;29;19906;-84
2023/01/08 08:04:01;;;;;;;;;;;;;;;;;;4910882;29;19926;-84
2023/01/08 08:06:40;;;;;;;;;;;;;;;;;;4933706;28;19903;-83
2023/01/08 08:09:06;;;;;;;;;;;;;;;;;;4946268;28;19923;-84
2023/01/08 08:11:34;;;;;;;;;;;;;;;;;;4915701;29;19942;-83
2023/01/08 08:14:00;;;;;;;;;;;;;;;;;;5004906;23;19911;-83
2023/01/08 08:16:26;;;;;;;;;;;;;;;;;;4944668;29;20362;-84
2023/01/08 08:18:53;;;;;;;;;;;;;;;;;;4945811;29;19918;-84
2023/01/08 08:21:23;;;;;;;;;;;;;;;;;;4930225;29;19931;-83
2023/01/08 08:23:49;;;;;;;;;;;;;;;;;;4930181;29;19999;-82
2023/01/08 08:26:15;;;;;;;;;;;;;;;;;;4960720;29;19899;-83
2023/01/08 08:28:41;;;;;;;;;;;;;;;;;;4930755;28;19925;-83
2023/01/08 08:31:08;;;;;;;;;;;;;;;;;;4945960;29;19919;-83
2023/01/08 08:33:34;;;;;;;;;;;;;;;;;;4929787;28;19903;-83
2023/01/08 08:36:01;;;;;;;;;;;;;;;;;;5487021;23;20247;-82
2023/01/08 08:38:26;;;;;;;;;;;;;;;;;;4946865;29;19910;-83
2023/01/08 08:40:53;;;;;;;;;;;;;;;;;;4980497;28;19973;-83
2023/01/08 08:43:19;;;;;;;;;;;;;;;;;;4978519;29;19921;-83
2023/01/08 08:45:46;;;;;;;;;;;;;;;;;;4962037;29;19914;-84
2023/01/08 08:48:16;;;;;;;;;;;;;;;;;;4963742;28;19902;-83
2023/01/08 08:50:45;;;;;;;;;;;;;;;;;;4948190;28;19903;-83
2023/01/08 08:53:19;;;;;;;;;;;;;;;;;;4947799;28;20181;-83
2023/01/08 08:55:52;;;;;;;;;;;;;;;;;;4949958;29;19918;-83
2023/01/08 08:58:33;;;;;;;;;;;;;;;;;;4965656;28;19923;-83
2023/01/08 09:01:02;;;;;;;;;;;;;;;;;;4949237;29;19921;-83
2023/01/08 09:03:29;;;;;;;;;;;;;;;;;;4965686;28;20023;-83
2023/01/08 09:06:00;;;;;;;;;;;;;;;;;;4965552;29;19911;-83
2023/01/08 09:08:27;;;;;;;;;;;;;;;;;;4948425;29;19955;-83
2023/01/08 09:10:52;;;;;;;;;;;;;;;;;;5001488;23;19935;-83
2023/01/08 09:15:56;;;;;;;;;;;;;;;;;;4979313;28;19910;-83
2023/01/08 09:18:22;;;;;;;;;;;;;;;;;;4964745;29;19958;-84
2023/01/08 09:20:47;;;;;;;;;;;;;;;;;;4948596;29;19938;-83
2023/01/08 09:23:13;;;;;;;;;;;;;;;;;;4964272;29;19910;-84
2023/01/08 09:25:39;;;;;;;;;;;;;;;;;;4980609;28;19998;-82
2023/01/08 09:28:07;;;;;;;;;;;;;;;;;;4964363;28;19913;-84
2023/01/08 09:30:33;;;;;;;;;;;;;;;;;;4964009;28;19902;-84
2023/01/08 09:32:58;;;;;;;;;;;;;;;;;;4981802;28;19930;-84
2023/01/08 09:35:25;;;;;;;;;;;;;;;;;;4965129;28;19965;-83
2023/01/08 09:37:51;;;;;;;;;;;;;;;;;;4949114;28;19933;-83
2023/01/08 09:40:17;;;;;;;;;;;;;;;;;;4964750;28;19909;-83
2023/01/08 09:42:42;;;;;;;;;;;;;;;;;;4964871;29;19926;-84
2023/01/08 09:45:09;;;;;;;;;;;;;;;;;;4964441;29;19903;-84
2023/01/08 09:47:37;;;;;;;;;;;;;;;;;;5101720;23;19938;-83
2023/01/08 09:50:13;;;;;;;;;;;;;;;;;;4926549;28;21842;-83
2023/01/08 09:52:44;;;;;;;;;;;;;;;;;;4910940;29;19910;-83
2023/01/08 09:55:16;;;;;;;;;;;;;;;;;;4925949;29;19910;-83
2023/01/08 09:57:42;;;;;;;;;;;;;;;;;;4923790;29;19919;-83
2023/01/08 10:00:10;;;;;;;;;;;;;;;;;;4940035;29;19918;-83
2023/01/08 10:02:36;;;;;;;;;;;;;;;;;;4940688;29;19939;-83
2023/01/08 10:05:04;;;;;;;;;;;;;;;;;;4925119;29;19915;-83
2023/01/08 10:07:33;;;;;;;;;;;;;;;;;;4937398;29;19926;-82
2023/01/08 10:10:02;;;;;;;;;;;;;;;;;;4908813;29;19899;-83
2023/01/08 10:12:28;;;;;;;;;;;;;;;;;;4925167;29;19922;-83
2023/01/08 10:14:54;;;;;;;;;;;;;;;;;;4924176;29;19966;-84
2023/01/08 10:17:27;;;;;;;;;;;;;;;;;;4924960;29;19923;-83
2023/01/08 10:19:53;;;;;;;;;;;;;;;;;;4923119;29;19952;-83
2023/01/08 10:22:22;;;;;;;;;;;;;;;;;;4925755;29;19910;-84
2023/01/08 10:24:53;;;;;;;;;;;;;;;;;;4909080;29;19907;-84
2023/01/08 10:28:03;;;;;;;;;;;;;;;;;;4922848;29;19911;-83
2023/01/08 10:30:29;;;;;;;;;;;;;;;;;;4909912;29;19927;-84
2023/01/08 10:32:57;;;;;;;;;;;;;;;;;;4925940;28;19964;-84
2023/01/08 10:35:25;;;;;;;;;;;;;;;;;;4910693;28;19970;-85
2023/01/08 10:37:52;;;;;;;;;;;;;;;;;;4907304;29;19931;-82
2023/01/08 10:40:20;;;;;;;;;;;;;;;;;;4919312;29;19959;-84
2023/01/08 10:42:49;;;;;;;;;;;;;;;;;;4939640;29;20046;-83
2023/01/08 10:45:14;;;;;;;;;;;;;;;;;;4915177;29;20335;-82
2023/01/08 10:47:40;;;;;;;;;;;;;;;;;;4941576;29;20420;-82
2023/01/08 10:50:12;;;;;;;;;;;;;;;;;;4927404;29;19915;-84
2023/01/08 10:52:43;;;;;;;;;;;;;;;;;;4929302;29;19986;-84
2023/01/08 10:55:16;;;;;;;;;;;;;;;;;;4909776;29;19966;-82
2023/01/08 10:57:42;;;;;;;;;;;;;;;;;;4923182;29;19926;-82
2023/01/08 11:00:07;;;;;;;;;;;;;;;;;;4926038;29;19900;-83
2023/01/08 11:02:33;;;;;;;;;;;;;;;;;;4928485;29;19980;-84
2023/01/08 11:04:59;;;;;;;;;;;;;;;;;;4913240;29;19907;-83
2023/01/08 11:07:24;;;;;;;;;;;;;;;;;;4925822;29;20331;-82
2023/01/08 12:27:32;;;;;;;;;;;;;;;;;;5103388;23;19917;-85
2023/01/08 12:30:00;;;;;;;;;;;;;;;;;;4947732;29;19925;-83
2023/01/08 12:32:26;;;;;;;;;;;;;;;;;;4948280;29;19918;-83
2023/01/08 12:34:51;;;;;;;;;;;;;;;;;;4963702;28;19899;-83
2023/01/08 12:37:18;;;;;;;;;;;;;;;;;;4930392;29;19990;-84
2023/01/08 12:39:52;;;;;;;;;;;;;;;;;;4947730;28;19903;-84
2023/01/08 12:42:23;;;;;;;;;;;;;;;;;;4946157;29;19930;-84
2023/01/08 12:44:48;;;;;;;;;;;;;;;;;;4946053;28;19903;-84
2023/01/08 12:47:20;;;;;;;;;;;;;;;;;;4930309;29;19899;-83
2023/01/08 12:49:46;;;;;;;;;;;;;;;;;;4930129;29;19978;-84
2023/01/08 12:52:15;;;;;;;;;;;;;;;;;;4960263;29;20335;-84
2023/01/08 12:54:48;;;;;;;;;;;;;;;;;;4961459;28;19970;-84
2023/01/08 12:57:15;;;;;;;;;;;;;;;;;;4946406;29;19930;-83
2023/01/08 12:59:41;;;;;;;;;;;;;;;;;;4943468;29;19907;-83
2023/01/08 13:02:07;;;;;;;;;;;;;;;;;;4944115;29;20030;-83
2023/01/08 13:04:35;;;;;;;;;;;;;;;;;;4959249;29;19919;-83
2023/01/08 13:07:00;;;;;;;;;;;;;;;;;;4927003;29;19926;-83
2023/01/08 13:09:26;;;;;;;;;;;;;;;;;;4943467;29;19937;-83
2023/01/08 13:11:52;;;;;;;;;;;;;;;;;;4928526;29;19915;-83
2023/01/08 13:14:20;;;;;;;;;;;;;;;;;;4928056;29;19925;-83
2023/01/08 13:16:46;;;;;;;;;;;;;;;;;;4943837;29;19915;-83
2023/01/08 13:19:11;;;;;;;;;;;;;;;;;;4925259;29;19922;-83
2023/01/08 13:21:37;;;;;;;;;;;;;;;;;;4957369;29;19946;-83
2023/01/08 13:24:02;;;;;;;;;;;;;;;;;;4956956;29;19926;-82
2023/01/08 13:26:28;;;;;;;;;;;;;;;;;;4954485;29;19952;-83
2023/01/08 13:28:54;;;;;;;;;;;;;;;;;;4941218;29;19911;-83
2023/01/08 13:31:19;;;;;;;;;;;;;;;;;;4958571;29;19915;-83
2023/01/08 13:33:48;;;;;;;;;;;;;;;;;;4928839;29;19903;-84
2023/01/08 13:36:24;;;;;;;;;;;;;;;;;;;;;
2023/01/08 13:38:50;;;;;;;;;;;;;;;;;;5093295;23;19934;-84
2023/01/08 13:41:16;;;;;;;;;;;;;;;;;;4964155;28;19930;-85
2023/01/08 13:44:10;;;;;;;;;;;;;;;;;;5350556;23;19925;-82
2023/01/08 13:52:01;;;;;;;;;;;;;;;;;;5793192;23;19914;-84
2023/01/08 13:54:28;;;;;;;;;;;;;;;;;;4948524;29;19926;-84
2023/01/08 13:57:07;;;;;;;;;;;;;;;;;;4949514;29;19919;-83
2023/01/08 13:59:37;;;;;;;;;;;;;;;;;;4946601;28;19935;-85
2023/01/08 14:02:20;;;;;;;;;;;;;;;;;;5875429;23;19926;-83
2023/01/08 14:07:42;;;;;;;;;;;;;;;;;;5552968;23;19918;-84
2023/01/08 14:10:12;;;;;;;;;;;;;;;;;;4948076;29;19970;-84
2023/01/08 14:12:41;;;;;;;;;;;;;;;;;;4948496;28;19902;-85
2023/01/08 14:15:10;;;;;;;;;;;;;;;;;;4962490;29;20000;-85
2023/01/08 14:17:37;;;;;;;;;;;;;;;;;;4927650;29;19926;-85
2023/01/08 14:20:04;;;;;;;;;;;;;;;;;;4942480;29;19985;-84
2023/01/08 14:22:30;;;;;;;;;;;;;;;;;;4957868;29;19910;-81
2023/01/08 14:24:58;;;;;;;;;;;;;;;;;;4943037;29;19918;-81
2023/01/08 14:27:29;;;;;;;;;;;;;;;;;;4943667;29;19910;-81
2023/01/08 14:29:55;;;;;;;;;;;;;;;;;;4960143;29;19914;-83
2023/01/08 14:32:21;;;;;;;;;;;;;;;;;;4960379;29;19915;-83
2023/01/08 14:34:50;;;;;;;;;;;;;;;;;;4944289;29;19915;-83
2023/01/08 14:37:20;;;;;;;;;;;;;;;;;;4961485;29;19895;-82
2023/01/08 14:39:52;;;;;;;;;;;;;;;;;;4961111;29;19971;-83
2023/01/08 14:42:45;;;;;;;;;;;;;;;;;;4926769;29;19914;-83
2023/01/08 14:45:13;;;;;;;;;;;;;;;;;;4944712;29;19922;-84
2023/01/08 14:47:43;;;;;;;;;;;;;;;;;;4954799;29;19918;-83
2023/01/08 14:50:12;;;;;;;;;;;;;;;;;;4935358;29;20465;-83
2023/01/08 14:53:02;;;;;;;;;;;;;;;;;;4952938;29;19914;-83
2023/01/08 14:55:31;;;;;;;;;;;;;;;;;;4973083;28;20401;-83
2023/01/08 14:58:00;;;;;;;;;;;;;;;;;;4964064;28;19910;-83
2023/01/08 15:00:45;;;;;;;;;;;;;;;;;;4948653;29;19919;-84
2023/01/08 15:03:13;;;;;;;;;;;;;;;;;;4946882;29;19909;-84
2023/01/08 15:08:33;;;;;;;;;;;;;;;;;;5622174;23;19919;-84
2023/01/08 15:11:10;;;;;;;;;;;;;;;;;;4948250;28;19902;-84
2023/01/08 15:13:39;;;;;;;;;;;;;;;;;;5266628;23;19910;-83
2023/01/08 15:16:13;;;;;;;;;;;;;;;;;;4944618;28;19943;-84
2023/01/08 15:18:44;;;;;;;;;;;;;;;;;;4944164;28;19999;-84
2023/01/08 15:21:11;;;;;;;;;;;;;;;;;;4913346;29;19986;-84
2023/01/08 15:23:47;;;;;;;;;;;;;;;;;;4944286;29;19926;-85
2023/01/08 15:26:15;;;;;;;;;;;;;;;;;;4961803;23;19927;-90
2023/01/08 15:28:41;;;;;;;;;;;;;;;;;;4907633;29;19949;-93
2023/01/08 15:31:11;;;;;;;;;;;;;;;;;;4892493;29;19966;-90
2023/01/08 15:33:37;;;;;;;;;;;;;;;;;;4891924;29;19915;-90
2023/01/08 15:36:02;;;;;;;;;;;;;;;;;;4889883;29;19937;-91
2023/01/08 15:38:27;;;;;;;;;;;;;;;;;;4905409;29;20386;-90
2023/01/08 15:40:53;;;;;;;;;;;;;;;;;;4921033;29;19915;-89
2023/01/08 15:43:18;;;;;;;;;;;;;;;;;;4921598;29;19927;-91
2023/01/08 15:45:44;;;;;;;;;;;;;;;;;;4904876;29;19943;-90
2023/01/08 15:48:10;;;;;;;;;;;;;;;;;;4920640;29;19922;-90
2023/01/08 15:50:38;;;;;;;;;;;;;;;;;;4920944;29;19915;-90
2023/01/08 15:53:06;;;;;;;;;;;;;;;;;;4906560;29;19958;-90
2023/01/08 15:55:32;;;;;;;;;;;;;;;;;;4889148;29;19915;-91
2023/01/08 15:57:58;;;;;;;;;;;;;;;;;;4906289;29;20280;-89
2023/01/08 16:00:23;;;;;;;;;;;;;;;;;;4903067;29;19966;-90
2023/01/08 16:02:48;;;;;;;;;;;;;;;;;;4918577;29;19915;-91
2023/01/08 16:05:15;;;;;;;;;;;;;;;;;;4902916;29;19915;-90
2023/01/08 16:07:40;;;;;;;;;;;;;;;;;;4918468;29;20006;-92
2023/01/08 16:10:06;;;;;;;;;;;;;;;;;;4918550;29;19943;-92
2023/01/08 16:12:34;;;;;;;;;;;;;;;;;;4919207;29;19970;-90
2023/01/08 16:15:00;;;;;;;;;;;;;;;;;;4919042;29;19922;-90
2023/01/08 16:17:25;;;;;;;;;;;;;;;;;;4920522;29;19915;-89
2023/01/08 16:19:51;;;;;;;;;;;;;;;;;;4920392;29;20010;-91
2023/01/08 16:22:16;;;;;;;;;;;;;;;;;;4904451;29;19919;-92
2023/01/08 16:24:42;;;;;;;;;;;;;;;;;;4919125;29;19922;-91
2023/01/08 16:27:08;;;;;;;;;;;;;;;;;;4919671;29;20378;-91
2023/01/08 16:29:36;;;;;;;;;;;;;;;;;;4905758;29;19919;-92
2023/01/08 16:32:05;;;;;;;;;;;;;;;;;;4907513;29;20386;-91
2023/01/08 16:34:31;;;;;;;;;;;;;;;;;;4919325;29;20002;-90
2023/01/08 16:36:59;;;;;;;;;;;;;;;;;;4907058;29;19961;-90
2023/01/08 16:39:27;;;;;;;;;;;;;;;;;;4889380;29;19927;-94
2023/01/08 16:41:55;;;;;;;;;;;;;;;;;;4906846;29;19922;-93
2023/01/08 16:44:21;;;;;;;;;;;;;;;;;;4909855;29;19927;-93
2023/01/08 16:46:49;;;;;;;;;;;;;;;;;;4907773;29;19950;-92
2023/01/08 16:49:16;;;;;;;;;;;;;;;;;;4913798;29;19922;-92
2023/01/08 16:51:43;;;;;;;;;;;;;;;;;;4907232;29;19915;-92
2023/01/08 16:54:08;;;;;;;;;;;;;;;;;;4905231;29;19921;-94
2023/01/08 16:56:36;;;;;;;;;;;;;;;;;;4905555;29;19915;-91
2023/01/08 16:59:02;;;;;;;;;;;;;;;;;;4906707;29;19919;-92
2023/01/08 17:01:32;;;;;;;;;;;;;;;;;;4902305;29;19915;-91
2023/01/08 17:03:58;;;;;;;;;;;;;;;;;;4918378;29;20019;-91
2023/01/08 17:06:26;;;;;;;;;;;;;;;;;;4907318;29;20449;-92
2023/01/08 17:08:51;;;;;;;;;;;;;;;;;;4926783;29;19915;-91
2023/01/08 17:11:16;;;;;;;;;;;;;;;;;;4911665;29;19991;-88
2023/01/08 17:13:42;;;;;;;;;;;;;;;;;;4913380;29;19915;-92
2023/01/08 17:16:13;;;;;;;;;;;;;;;;;;4911756;29;19935;-92
2023/01/08 17:18:38;;;;;;;;;;;;;;;;;;4903021;29;19920;-92
2023/01/08 17:21:06;;;;;;;;;;;;;;;;;;4918344;29;19950;-92
2023/01/08 17:23:32;;;;;;;;;;;;;;;;;;4917909;29;19915;-93
2023/01/08 17:26:02;;;;;;;;;;;;;;;;;;4902237;29;20382;-92
2023/01/08 17:28:33;;;;;;;;;;;;;;;;;;4902990;29;20031;-91
2023/01/08 17:30:59;;;;;;;;;;;;;;;;;;4903427;29;19922;-90
2023/01/08 17:33:24;;;;;;;;;;;;;;;;;;4903500;29;19911;-91
2023/01/08 17:35:50;;;;;;;;;;;;;;;;;;4917889;29;20008;-93
2023/01/08 17:38:18;;;;;;;;;;;;;;;;;;4902040;29;19919;-93
2023/01/08 17:40:47;;;;;;;;;;;;;;;;;;4918316;29;19965;-95
2023/01/08 17:43:15;;;;;;;;;;;;;;;;;;4904028;29;19916;-96
2023/01/08 17:45:40;;;;;;;;;;;;;;;;;;4903461;29;19942;-94
2023/01/08 17:48:06;;;;;;;;;;;;;;;;;;4903099;29;20272;-94
2023/01/08 17:50:59;;;;;;;;;;;;;;;;;;4905656;29;19994;-95
2023/01/08 17:53:24;;;;;;;;;;;;;;;;;;4922356;29;19922;-96
2023/01/08 17:55:53;;;;;;;;;;;;;;;;;;4902498;29;19915;-94
2023/01/08 17:58:22;;;;;;;;;;;;;;;;;;4908896;29;19927;-93
2023/01/08 18:01:08;;;;;;;;;;;;;;;;;;4911937;29;19971;-93
2023/01/08 18:03:34;;;;;;;;;;;;;;;;;;4904031;29;20366;-94
2023/01/08 18:05:59;;;;;;;;;;;;;;;;;;4902776;29;19915;-94
2023/01/08 18:08:25;;;;;;;;;;;;;;;;;;4903451;29;19992;-93
2023/01/08 18:10:53;;;;;;;;;;;;;;;;;;4904774;29;20051;-95
2023/01/08 18:13:18;;;;;;;;;;;;;;;;;;4906317;29;19976;-96
2023/01/08 18:15:47;;;;;;;;;;;;;;;;;;4908279;29;19958;-95
2023/01/08 18:18:21;;;;;;;;;;;;;;;;;;4912980;29;19954;-94
2023/01/08 18:20:50;;;;;;;;;;;;;;;;;;4907839;29;19916;-94
2023/01/08 18:26:07;;;;;;;;;;;;;;;;;;4906788;29;19996;-95
2023/01/08 18:28:46;;;;;;;;;;;;;;;;;;4907486;29;19919;-94
2023/01/08 18:34:08;;;;;;;;;;;;;;;;;;4903895;29;19915;-91
2023/01/08 18:36:37;;;;;;;;;;;;;;;;;;4892075;29;19974;-92
2023/01/08 18:39:08;;;;;;;;;;;;;;;;;;4908724;29;20110;-94
2023/01/08 18:44:35;;;;;;;;;;;;;;;;;;4909882;29;19919;-94
2023/01/08 18:47:14;;;;;;;;;;;;;;;;;;;;;
2023/01/08 18:49:46;;;;;;;;;;;;;;;;;;4908865;29;19942;-95
2023/01/08 18:52:12;;;;;;;;;;;;;;;;;;4910392;29;19972;-95
2023/01/08 18:54:38;;;;;;;;;;;;;;;;;;4933164;29;19937;-93
2023/01/08 18:57:09;;;;;;;;;;;;;;;;;;4923001;28;19938;-94
2023/01/08 18:59:38;;;;;;;;;;;;;;;;;;4924138;28;19915;-95
2023/01/08 19:02:34;;;;;;;;;;;;;;;;;;4915497;28;19908;-93
2023/01/08 19:05:00;;;;;;;;;;;;;;;;;;4928401;28;19934;-94
2023/01/08 19:07:26;;;;;;;;;;;;;;;;;;4944409;28;19942;-96
2023/01/08 19:09:51;;;;;;;;;;;;;;;;;;4928422;28;19946;-92
2023/01/08 19:12:17;;;;;;;;;;;;;;;;;;4925868;29;19907;-92
2023/01/08 19:14:42;;;;;;;;;;;;;;;;;;4917380;29;20398;-89
2023/01/08 19:17:07;;;;;;;;;;;;;;;;;;4906575;29;20414;-87